createdAt,value
2023-04-27T00:01:21.546Z,259
2023-04-27T00:03:32.775Z,259
2023-04-27T00:05:46.419Z,259
2023-04-27T00:07:57.404Z,257
2023-04-27T00:10:11.089Z,261
2023-04-27T00:12:26.229Z,262
2023-04-27T00:14:38.591Z,259
2023-04-27T00:16:51.294Z,259
2023-04-27T00:19:02.189Z,259
2023-04-27T00:21:16.897Z,259
2023-04-27T00:23:27.348Z,259
2023-04-27T00:25:41.148Z,258
2023-04-27T00:28:05.381Z,256
2023-04-27T00:30:17.229Z,256
2023-04-27T00:32:28.104Z,256
2023-04-27T00:34:38.845Z,256
2023-04-27T00:36:51.044Z,256
2023-04-27T00:39:06.329Z,256
2023-04-27T00:41:18.733Z,256
2023-04-27T00:43:29.627Z,256
2023-04-27T00:45:41.317Z,256
2023-04-27T00:47:53.214Z,256
2023-04-27T00:50:03.933Z,256
2023-04-27T00:52:13.819Z,256
2023-04-27T00:54:26.773Z,256
2023-04-27T00:56:37.868Z,247
2023-04-27T00:58:50.407Z,256
2023-04-27T01:01:00.281Z,256
2023-04-27T01:03:11.503Z,256
2023-04-27T01:05:22.867Z,256
2023-04-27T01:07:38.228Z,256
2023-04-27T01:09:48.428Z,256
2023-04-27T01:12:00.850Z,256
2023-04-27T01:14:10.810Z,256
2023-04-27T01:16:20.278Z,257
2023-04-27T01:18:31.464Z,257
2023-04-27T01:20:42.103Z,257
2023-04-27T01:22:52.705Z,256
2023-04-27T01:25:03.603Z,256
2023-04-27T01:27:16.087Z,258
2023-04-27T01:29:26.561Z,258
2023-04-27T01:31:39.981Z,257
2023-04-27T01:33:50.682Z,256
2023-04-27T01:36:15.608Z,256
2023-04-27T01:38:26.803Z,255
2023-04-27T01:40:37.088Z,256
2023-04-27T01:42:48.395Z,255
2023-04-27T01:44:59.317Z,257
2023-04-27T01:47:12.767Z,256
2023-04-27T01:49:27.330Z,256
2023-04-27T01:51:40.409Z,257
2023-04-27T01:53:50.567Z,257
2023-04-27T01:56:05.088Z,259
2023-04-27T01:58:15.088Z,259
2023-04-27T02:00:26.909Z,259
2023-04-27T02:02:36.896Z,259
2023-04-27T02:05:01.668Z,257
2023-04-27T02:07:13.334Z,259
2023-04-27T02:09:24.676Z,259
2023-04-27T02:11:34.248Z,259
2023-04-27T02:13:44.750Z,259
2023-04-27T02:15:54.926Z,259
2023-04-27T02:18:07.748Z,261
2023-04-27T02:20:19.725Z,260
2023-04-27T02:22:30.273Z,259
2023-04-27T02:24:42.410Z,259
2023-04-27T02:26:52.907Z,261
2023-04-27T02:29:23.948Z,261
2023-04-27T02:31:37.364Z,261
2023-04-27T02:33:51.129Z,259
2023-04-27T02:36:02.368Z,260
2023-04-27T02:38:13.530Z,259
2023-04-27T02:40:23.767Z,259
2023-04-27T02:42:34.836Z,260
2023-04-27T02:44:58.254Z,260
2023-04-27T02:47:07.860Z,259
2023-04-27T02:49:19.008Z,261
2023-04-27T02:51:29.143Z,261
2023-04-27T02:53:42.444Z,261
2023-04-27T02:55:53.667Z,261
2023-04-27T02:58:04.147Z,257
2023-04-27T03:00:14.771Z,258
2023-04-27T03:02:27.495Z,259
2023-04-27T03:04:39.065Z,259
2023-04-27T03:06:49.149Z,259
2023-04-27T03:09:01.023Z,257
2023-04-27T03:11:11.484Z,258
2023-04-27T03:13:21.905Z,259
2023-04-27T03:15:32.747Z,259
2023-04-27T03:17:45.575Z,257
2023-04-27T03:20:00.694Z,257
2023-04-27T03:22:10.749Z,257
2023-04-27T03:24:21.835Z,257
2023-04-27T03:26:45.865Z,259
2023-04-27T03:28:57.694Z,257
2023-04-27T03:31:09.129Z,257
2023-04-27T03:33:19.422Z,258
2023-04-27T03:35:28.928Z,259
2023-04-27T03:37:42.989Z,259
2023-04-27T03:39:54.624Z,259
2023-04-27T03:42:05.124Z,259
2023-04-27T03:44:17.905Z,259
2023-04-27T03:46:32.213Z,259
2023-04-27T03:48:47.221Z,259
2023-04-27T03:50:58.782Z,258
2023-04-27T03:53:13.745Z,259
2023-04-27T03:55:26.203Z,261
2023-04-27T03:57:36.625Z,261
2023-04-27T03:59:48.145Z,259
2023-04-27T04:02:01.255Z,260
2023-04-27T04:04:13.590Z,259
2023-04-27T04:06:25.327Z,259
2023-04-27T04:08:36.391Z,260
2023-04-27T04:10:46.868Z,259
2023-04-27T04:12:57.926Z,259
2023-04-27T04:15:11.188Z,258
2023-04-27T04:17:21.149Z,259
2023-04-27T04:19:31.445Z,260
2023-04-27T04:21:41.591Z,260
2023-04-27T04:23:52.765Z,261
2023-04-27T04:26:05.642Z,259
2023-04-27T04:28:16.527Z,261
2023-04-27T04:30:26.786Z,260
2023-04-27T04:32:38.159Z,260
2023-04-27T04:34:53.349Z,259
2023-04-27T04:37:06.627Z,259
2023-04-27T04:39:18.462Z,259
2023-04-27T04:41:29.104Z,259
2023-04-27T04:43:40.487Z,259
2023-04-27T04:45:50.264Z,260
2023-04-27T04:48:02.581Z,261
2023-04-27T04:50:13.847Z,259
2023-04-27T04:52:26.020Z,259
2023-04-27T04:54:39.225Z,259
2023-04-27T04:56:49.031Z,259
2023-04-27T04:59:01.084Z,260
2023-04-27T05:01:12.275Z,259
2023-04-27T05:03:26.194Z,260
2023-04-27T05:05:41.991Z,259
2023-04-27T05:07:55.062Z,259
2023-04-27T05:10:08.051Z,259
2023-04-27T05:12:18.849Z,261
2023-04-27T05:14:30.249Z,261
2023-04-27T05:16:43.181Z,261
2023-04-27T05:18:54.186Z,261
2023-04-27T05:21:06.567Z,261
2023-04-27T05:23:18.846Z,261
2023-04-27T05:25:35.544Z,261
2023-04-27T05:27:46.504Z,261
2023-04-27T05:29:59.920Z,261
2023-04-27T05:32:25.802Z,261
2023-04-27T05:34:35.862Z,261
2023-04-27T05:36:49.435Z,261
2023-04-27T05:39:02.307Z,261
2023-04-27T05:41:12.606Z,260
2023-04-27T05:43:24.396Z,261
2023-04-27T05:45:36.579Z,262
2023-04-27T05:47:48.250Z,260
2023-04-27T05:50:02.826Z,261
2023-04-27T05:52:13.867Z,261
2023-04-27T05:54:26.530Z,260
2023-04-27T05:56:44.532Z,259
2023-04-27T05:58:56.228Z,261
2023-04-27T06:01:18.164Z,259
2023-04-27T06:03:40.384Z,260
2023-04-27T06:06:03.045Z,261
2023-04-27T06:08:25.847Z,261
2023-04-27T06:10:39.570Z,261
2023-04-27T06:12:59.185Z,259
2023-04-27T06:15:13.755Z,259
2023-04-27T06:17:28.880Z,259
2023-04-27T06:20:01.470Z,259
2023-04-27T06:22:31.547Z,259
2023-04-27T06:25:43.833Z,260
2023-04-27T06:31:37.310Z,258
2023-04-27T06:33:59.454Z,259
2023-04-27T06:36:30.194Z,260
2023-04-27T06:38:57.430Z,259
2023-04-27T06:41:23.170Z,259
2023-04-27T06:43:39.956Z,260
2023-04-27T06:45:55.162Z,259
2023-04-27T06:48:09.887Z,261
2023-04-27T06:50:22.815Z,261
2023-04-27T06:52:59.217Z,259
2023-04-27T06:55:43.505Z,258
2023-04-27T06:58:12.614Z,261
2023-04-27T07:01:06.070Z,259
2023-04-27T07:03:31.426Z,259
2023-04-27T07:06:12.831Z,261
2023-04-27T07:08:39.771Z,259
2023-04-27T07:10:59.193Z,259
2023-04-27T07:16:35.626Z,259
2023-04-27T07:18:50.747Z,261
2023-04-27T07:21:11.351Z,260
2023-04-27T07:24:55.431Z,260
2023-04-27T07:27:56.145Z,261
2023-04-27T07:34:22.628Z,261
2023-04-27T07:40:15.925Z,262
2023-04-27T07:42:45.189Z,262
2023-04-27T07:45:11.487Z,262
2023-04-27T07:47:29.855Z,261
2023-04-27T07:49:46.384Z,262
2023-04-27T07:52:17.541Z,262
2023-04-27T07:54:57.275Z,262
2023-04-27T07:57:18.321Z,262
2023-04-27T08:00:45.581Z,262
2023-04-27T08:03:33.145Z,260
2023-04-27T08:06:00.742Z,262
2023-04-27T08:08:15.231Z,262
2023-04-27T08:10:28.058Z,261
2023-04-27T08:12:37.702Z,262
2023-04-27T08:14:48.748Z,262
2023-04-27T08:17:13.624Z,261
2023-04-27T08:19:43.822Z,262
2023-04-27T08:21:54.808Z,262
2023-04-27T08:24:08.785Z,261
2023-04-27T08:26:32.722Z,261
2023-04-27T08:28:48.244Z,261
2023-04-27T08:34:48.681Z,261
2023-04-27T08:37:17.739Z,261
2023-04-27T08:39:52.046Z,261
2023-04-27T08:49:25.583Z,261
2023-04-27T09:45:43.917Z,264
2023-04-27T10:11:54.867Z,259
2023-04-27T10:18:16.934Z,261
2023-04-27T10:30:17.848Z,261
2023-04-27T10:32:44.723Z,261
2023-04-27T10:38:38.726Z,262
2023-04-27T11:18:06.132Z,256
2023-04-27T11:20:24.373Z,257
2023-04-27T11:22:53.789Z,258
2023-04-27T11:26:03.591Z,266
2023-04-27T11:28:25.851Z,264
2023-04-27T11:30:57.566Z,265
2023-04-27T11:33:20.447Z,264
2023-04-27T11:35:44.187Z,264
2023-04-27T11:38:02.270Z,264
2023-04-27T11:40:40.947Z,264
2023-04-27T11:42:57.186Z,264
2023-04-27T11:45:41.350Z,264
2023-04-27T11:48:09.342Z,264
2023-04-27T11:50:33.569Z,264
2023-04-27T11:52:48.672Z,264
2023-04-27T11:55:17.288Z,262
2023-04-27T11:57:35.108Z,264
2023-04-27T12:00:14.184Z,262
2023-04-27T12:03:21.393Z,264
2023-04-27T12:09:28.168Z,261
2023-04-27T12:12:05.081Z,262
2023-04-27T12:14:54.846Z,262
2023-04-27T12:17:46.954Z,262
2023-04-27T12:20:57.125Z,264
2023-04-27T12:26:10.084Z,261
2023-04-27T12:28:23.247Z,264
2023-04-27T12:30:33.684Z,264
2023-04-27T12:32:44.690Z,265
2023-04-27T12:34:59.322Z,264
2023-04-27T12:37:09.848Z,265
2023-04-27T12:39:25.029Z,264
2023-04-27T12:41:37.230Z,265
2023-04-27T12:43:49.387Z,264
2023-04-27T12:46:07.787Z,264
2023-04-27T12:49:11.496Z,264
2023-04-27T12:51:51.624Z,264
2023-04-27T12:57:14.369Z,264
2023-04-27T12:59:48.668Z,264
2023-04-27T13:02:08.092Z,262
2023-04-27T13:04:31.760Z,264
2023-04-27T13:07:11.135Z,264
2023-04-27T13:09:33.442Z,262
2023-04-27T13:11:49.179Z,264
2023-04-27T13:14:03.043Z,264
2023-04-27T13:16:14.051Z,264
2023-04-27T13:18:35.097Z,262
2023-04-27T13:20:50.663Z,261
2023-04-27T13:23:14.469Z,262
2023-04-27T13:25:41.321Z,262
2023-04-27T13:27:53.421Z,262
2023-04-27T13:30:08.922Z,261
2023-04-27T13:32:22.823Z,261
2023-04-27T13:34:35.740Z,261
2023-04-27T13:36:47.807Z,262
2023-04-27T13:39:02.967Z,262
2023-04-27T13:41:14.046Z,260
2023-04-27T13:43:25.345Z,262
2023-04-27T13:45:37.628Z,264
2023-04-27T13:51:02.421Z,261
2023-04-27T13:53:55.660Z,262
2023-04-27T13:56:29.502Z,262
2023-04-27T13:59:37.364Z,259
2023-04-27T14:01:56.044Z,262
2023-04-27T14:05:38.824Z,262
2023-04-27T14:08:00.449Z,261
2023-04-27T14:10:25.447Z,259
2023-04-27T14:12:45.249Z,259
2023-04-27T14:15:02.367Z,259
2023-04-27T14:17:20.605Z,259
2023-04-27T14:20:09.363Z,262
2023-04-27T14:22:27.322Z,261
2023-04-27T14:24:59.077Z,262
2023-04-27T14:27:31.948Z,264
2023-04-27T14:29:50.325Z,261
2023-04-27T14:32:23.857Z,262
2023-04-27T14:34:56.385Z,261
2023-04-27T14:37:35.706Z,262
2023-04-27T14:40:19.407Z,261
2023-04-27T14:42:47.228Z,261
2023-04-27T14:48:07.364Z,261
2023-04-27T14:50:21.975Z,261
2023-04-27T14:52:35.847Z,260
2023-04-27T14:55:06.975Z,261
2023-04-27T14:57:25.018Z,262
2023-04-27T14:59:37.268Z,261
2023-04-27T15:01:48.366Z,262
2023-04-27T15:04:03.011Z,259
2023-04-27T15:06:16.410Z,257
2023-04-27T15:08:27.789Z,261
2023-04-27T15:10:43.887Z,262
2023-04-27T15:13:03.735Z,264
2023-04-27T15:15:29.351Z,254
2023-04-27T15:17:42.291Z,264
2023-04-27T15:20:17.487Z,259
2023-04-27T15:22:29.712Z,258
2023-04-27T15:24:39.950Z,257
2023-04-27T15:26:52.125Z,257
2023-04-27T15:29:16.175Z,257
2023-04-27T15:31:29.000Z,258
2023-04-27T15:33:40.105Z,261
2023-04-27T15:35:54.080Z,259
2023-04-27T15:38:18.017Z,259
2023-04-27T15:40:31.066Z,260
2023-04-27T15:42:44.287Z,259
2023-04-27T15:45:03.990Z,259
2023-04-27T15:47:19.804Z,257
2023-04-27T15:49:53.980Z,257
2023-04-27T15:52:24.368Z,257
2023-04-27T15:54:52.612Z,256
2023-04-27T15:57:20.607Z,257
2023-04-27T15:59:31.681Z,258
2023-04-27T16:01:52.240Z,257
2023-04-27T16:04:05.378Z,257
2023-04-27T16:06:41.669Z,259
2023-04-27T16:09:10.516Z,259
2023-04-27T16:14:58.101Z,258
2023-04-27T16:18:01.808Z,258
2023-04-27T16:31:39.429Z,262
2023-04-27T16:33:56.105Z,259
2023-04-27T16:36:07.604Z,261
2023-04-27T16:38:21.344Z,257
2023-04-27T16:43:57.653Z,256
2023-04-27T17:07:56.828Z,259
2023-04-27T17:11:03.730Z,259
2023-04-27T17:13:34.730Z,259
2023-04-27T17:16:15.615Z,259
2023-04-27T17:19:06.685Z,257
2023-04-27T17:21:45.564Z,258
2023-04-27T17:24:04.942Z,258
2023-04-27T17:26:33.603Z,259
2023-04-27T17:28:54.423Z,257
2023-04-27T17:31:17.615Z,247
2023-04-27T17:33:41.800Z,248
2023-04-27T17:36:11.973Z,256
2023-04-27T17:38:37.727Z,255
2023-04-27T17:40:50.004Z,253
2023-04-27T17:43:15.263Z,256
2023-04-27T17:45:30.580Z,254
2023-04-27T17:47:43.505Z,255
2023-04-27T17:50:06.209Z,255
2023-04-27T17:52:37.005Z,254
2023-04-27T17:54:52.588Z,256
2023-04-27T17:57:14.405Z,256
2023-04-27T17:59:28.893Z,255
2023-04-27T18:01:44.042Z,253
2023-04-27T18:04:11.638Z,253
2023-04-27T18:06:27.765Z,254
2023-04-27T18:08:37.368Z,249
2023-04-27T18:11:16.280Z,253
2023-04-27T18:13:47.076Z,254
2023-04-27T18:16:04.776Z,255
2023-04-27T18:18:55.735Z,254
2023-04-27T18:24:07.150Z,253
2023-04-27T18:26:24.526Z,254
2023-04-27T18:28:51.731Z,248
2023-04-27T18:33:56.800Z,253
2023-04-27T18:36:18.145Z,253
2023-04-27T18:38:52.563Z,249
2023-04-27T18:41:19.616Z,252
2023-04-27T18:43:33.467Z,253
2023-04-27T18:45:51.602Z,253
2023-04-27T18:48:14.422Z,253
2023-04-27T18:50:27.769Z,253
2023-04-27T18:52:41.644Z,253
2023-04-27T18:54:59.381Z,253
2023-04-27T18:57:19.919Z,253
2023-04-27T18:59:35.421Z,253
2023-04-27T19:02:06.965Z,253
2023-04-27T19:04:29.412Z,250
2023-04-27T19:06:48.163Z,250
2023-04-27T19:09:27.188Z,252
2023-04-27T19:12:16.526Z,253
2023-04-27T19:15:08.124Z,253
2023-04-27T19:17:33.808Z,252
2023-04-27T19:19:53.947Z,248
2023-04-27T19:22:31.146Z,252
2023-04-27T19:25:17.486Z,249
2023-04-27T19:31:08.108Z,249
2023-04-27T19:33:30.444Z,253
2023-04-27T19:36:22.361Z,253
2023-04-27T19:38:59.467Z,253
2023-04-27T19:41:46.081Z,253
2023-04-27T19:44:16.580Z,253
2023-04-27T19:46:56.009Z,249
2023-04-27T19:49:25.509Z,252
2023-04-27T19:54:48.481Z,252
2023-04-27T19:57:37.050Z,252
2023-04-27T20:00:15.448Z,249
2023-04-27T20:02:38.502Z,253
2023-04-27T20:05:14.437Z,252
2023-04-27T20:07:52.783Z,253
2023-04-27T20:10:32.723Z,254
2023-04-27T20:13:15.832Z,252
2023-04-27T20:16:03.877Z,252
2023-04-27T20:18:30.949Z,249
2023-04-27T20:21:24.425Z,249
2023-04-27T20:24:12.564Z,252
2023-04-27T20:26:49.540Z,254
2023-04-27T20:29:17.558Z,254
2023-04-27T20:32:06.749Z,253
2023-04-27T20:35:05.767Z,252
2023-04-27T20:41:04.152Z,248
2023-04-27T20:44:07.846Z,248
2023-04-27T20:46:49.965Z,253
2023-04-27T20:49:52.204Z,249
2023-04-27T20:52:15.546Z,248
2023-04-27T20:55:12.737Z,249
2023-04-27T20:58:07.284Z,252
2023-04-27T21:00:40.604Z,249
2023-04-27T21:03:16.200Z,249
2023-04-27T21:05:41.333Z,250
2023-04-27T21:08:12.408Z,247
2023-04-27T21:13:32.930Z,252
2023-04-27T21:16:10.998Z,250
2023-04-27T21:18:47.565Z,249
2023-04-27T21:21:14.706Z,252
2023-04-27T21:24:04.477Z,252
2023-04-27T21:29:31.176Z,247
2023-04-27T21:31:53.769Z,248
2023-04-27T21:34:23.947Z,249
2023-04-27T21:37:03.705Z,252
2023-04-27T21:39:30.956Z,248
2023-04-27T21:41:55.490Z,253
2023-04-27T21:44:14.739Z,252
2023-04-27T21:46:37.236Z,252
2023-04-27T21:49:08.791Z,252
2023-04-27T21:51:48.723Z,252
2023-04-27T21:54:15.064Z,250
2023-04-27T21:56:45.887Z,249
2023-04-27T21:59:09.803Z,249
2023-04-27T22:01:58.890Z,248
2023-04-27T22:04:37.140Z,249
2023-04-27T22:07:16.865Z,250
2023-04-27T22:09:54.167Z,249
2023-04-27T22:12:33.356Z,252
2023-04-27T22:15:08.106Z,249
2023-04-27T22:17:32.918Z,252
2023-04-27T22:22:37.810Z,249
2023-04-27T22:25:13.196Z,248
2023-04-27T22:28:03.126Z,249
2023-04-27T22:30:48.821Z,248
2023-04-27T22:33:23.837Z,259
2023-04-27T22:36:06.865Z,259
2023-04-27T22:38:47.385Z,256
2023-04-27T22:41:16.147Z,257
2023-04-27T22:43:49.386Z,259
2023-04-27T22:46:06.324Z,261
2023-04-27T22:48:38.778Z,259
2023-04-27T22:51:12.104Z,258
2023-04-27T22:53:57.861Z,258
2023-04-27T22:56:30.583Z,256
2023-04-27T22:59:02.469Z,258
2023-04-27T23:01:38.114Z,257
2023-04-27T23:04:08.794Z,257
2023-04-27T23:09:25.271Z,257
2023-04-27T23:12:20.224Z,257
2023-04-27T23:15:38.845Z,257
2023-04-27T23:18:04.609Z,257
2023-04-27T23:20:43.145Z,257
2023-04-27T23:23:31.180Z,256
2023-04-27T23:26:14.762Z,257
2023-04-27T23:28:43.985Z,257
2023-04-27T23:31:15.751Z,257
2023-04-27T23:33:51.042Z,257
2023-04-27T23:36:22.805Z,260
2023-04-27T23:38:44.765Z,256
2023-04-27T23:41:10.421Z,255
2023-04-27T23:43:43.347Z,256
2023-04-27T23:46:18.681Z,259
2023-04-27T23:48:52.245Z,257
2023-04-27T23:51:20.387Z,256
2023-04-27T23:56:30.625Z,257
2023-04-27T23:58:59.084Z,257
